Startpagina
METAR-TAF:

METAR-TAF

Vliegvelden :

Gəncə, Azerbeidzjan

breedte: 40-44N, lengte: 046-24E, hoogte: 330 m

Actueel weer

Dit bericht is 58 minuten geleden gemaakt, om 01:30 UTC
Wind 10 kt uit het westen
Temperatuur 22°C
Vochtigheid 57%
Druk 1006 hPa
Zicht 10 km of meer
Weinig wolken op 10000 ft

METAR: UBBG 170130Z 28010KT 9999 FEW100 22/13 Q1006 R30/CLRD// NOSIG

Tijdstip: 06:28 (02:28 UTC)

Verwachting

Dit bericht is 3 uur en het 28 minuten geleden gemaakt, om 23:00 UTC
Verwachting geldig van 17 om 00 UTC tot 17 om 24 UTC
Wind 8 kt uit het noordwesten
Zicht 10 km of meer
Weinig wolken op 4000 ft
Verspreide wolken op 10000 ft
goed ontwikkelde stof of zandhoosjes
Wijzigt naar
van 17 om 06 UTC tot 17 om 08 UTC
Wind 4 kt uit variabele richting
Wijzigt naar
van 17 om 09 UTC tot 17 om 11 UTC
Wind 14 kt uit het oosten

TAF: UBBG 162300Z 1700/1724 28010KT 9999 FEW040 SCT100 TX34/1712ZZ TEM PO 1700/1706 31008KT BECMG 1706/1708 VRB04KT BECMG 1709/1711 10014KT

Waarnemingen en weersverwachtingen van meer dan 4000 vliegvelden (METAR en TAF).

De beschikbare stations zijn de gele en rode punten op de kaart.

Ga met uw muis naar het station om de naam te zien.

Klik dan om waarnemingen en weersverwachtingen te zien.

kaart wijzigen: klik op de groene knoppen met een zwart kruis om in te zoomen, op de groene knop met een streepje om uit te zoomen of op de groene pijlen voor aangrenzende kaarten.


METAR-TAF: